Time,TemperatureF,DewpointF,PressureIn,WindDirection,WindDirectionDegrees,WindSpeedMPH,WindSpeedGustMPH,Humidity,HourlyPrecipIn,Conditions,Clouds,dailyrainin,SoftwareType,DateUTC
2013-01-03 00:04:00,34.5,28.1,29.12,ENE,68,3.5,3.5,77,0.00,CLR,SCT,0.00,WeatherDisplay:10.37,2013-01-03 09:04:00,
2013-01-03 00:09:00,34.5,28.1,29.12,ESE,112,4.6,4.6,77,0.00,CLR,SCT,0.00,WeatherDisplay:10.37,2013-01-03 09:09:00,
2013-01-03 00:14:00,34.3,28.2,29.12,SE,135,3.5,3.5,78,0.00,CLR,SCT,0.00,WeatherDisplay:10.37,2013-01-03 09:14:00,
2013-01-03 00:19:00,34.7,28.5,29.12,East,90,4.0,4.0,78,0.00,CLR,SCT,0.00,WeatherDisplay:10.37,2013-01-03 09:19:00,
2013-01-03 00:24:00,35.1,28.9,29.15,SE,135,3.5,3.5,78,0.00,CLR,SCT,0.00,WeatherDisplay:10.37,2013-01-03 09:24:00,
2013-01-03 00:29:00,35.4,28.9,29.15,ENE,68,5.8,5.8,77,0.00,CLR,SCT,0.00,WeatherDisplay:10.37,2013-01-03 09:29:00,
2013-01-03 00:34:00,35.2,28.8,29.15,East,90,2.3,0.0,77,0.00,CLR,SCT,0.00,WeatherDisplay:10.37,2013-01-03 09:34:00,
2013-01-03 00:39:00,35.2,28.8,29.12,East,90,2.3,0.0,77,0.00,CLR,SCT,0.00,WeatherDisplay:10.37,2013-01-03 09:39:00,
2013-01-03 00:44:00,35.4,28.9,29.12,NE,45,4.9,4.9,77,0.00,CLR,SCT,0.00,WeatherDisplay:10.37,2013-01-03 09:44:00,
2013-01-03 00:49:00,35.2,28.4,29.12,East,90,2.3,0.0,76,0.00,CLR,SCT,0.00,WeatherDisplay:10.37,2013-01-03 09:49:00,
2013-01-03 00:54:00,35.8,28.3,29.12,ENE,68,4.9,4.9,74,0.00,CLR,SCT,0.00,WeatherDisplay:10.37,2013-01-03 09:54:00,
2013-01-03 00:59:00,36.1,28.0,29.12,ENE,68,3.6,0.0,72,0.00,CLR,SCT,0.00,WeatherDisplay:10.37,2013-01-03 09:59:00,
2013-01-03 01:04:00,35.8,27.3,29.12,ENE,68,2.3,2.3,71,0.00,CLR,SCT,0.00,WeatherDisplay:10.37,2013-01-03 10:04:00,
2013-01-03 01:09:00,35.8,27.3,29.12,ESE,112,2.3,2.3,71,0.00,CLR,SCT,0.00,WeatherDisplay:10.37,2013-01-03 10:09:00,
2013-01-03 01:14:00,35.6,27.1,29.12,ESE,112,0.0,0.0,71,0.00,CLR,SCT,0.00,WeatherDisplay:10.37,2013-01-03 10:14:00,
2013-01-03 01:19:00,35.6,27.1,29.12,ESE,112,0.0,0.0,71,0.00,CLR,SCT,0.00,WeatherDisplay:10.37,2013-01-03 10:19:00,
2013-01-03 01:24:00,35.6,26.8,29.12,ENE,68,7.1,7.1,70,0.00,CLR,SCT,0.00,WeatherDisplay:10.37,2013-01-03 10:24:00,
2013-01-03 01:29:00,35.8,26.6,29.12,ENE,68,2.3,0.0,69,0.00,CLR,SCT,0.00,WeatherDisplay:10.37,2013-01-03 10:29:00,
2013-01-03 01:34:00,35.6,26.8,29.12,ENE,68,0.0,0.0,70,0.00,CLR,SCT,0.00,WeatherDisplay:10.37,2013-01-03 10:34:00,
2013-01-03 01:39:00,35.4,26.6,29.15,ESE,112,3.6,3.6,70,0.00,CLR,SCT,0.00,WeatherDisplay:10.37,2013-01-03 10:39:00,
2013-01-03 01:44:00,35.2,26.8,29.15,ESE,112,0.0,0.0,71,0.00,CLR,SCT,0.00,WeatherDisplay:10.37,2013-01-03 10:44:00,
2013-01-03 01:49:00,35.2,26.8,29.15,ESE,112,0.0,0.0,71,0.00,CLR,SCT,0.00,WeatherDisplay:10.37,2013-01-03 10:49:00,
2013-01-03 01:54:00,35.2,27.1,29.12,ESE,112,0.0,0.0,72,0.00,CLR,SCT,0.00,WeatherDisplay:10.37,2013-01-03 10:54:00,
2013-01-03 01:59:00,35.2,27.1,29.12,SE,135,0.0,0.0,72,0.00,CLR,SCT,0.00,WeatherDisplay:10.37,2013-01-03 10:59:00,
2013-01-03 02:04:00,35.1,26.9,29.12,SE,135,0.0,0.0,72,0.00,CLR,SCT,0.00,WeatherDisplay:10.37,2013-01-03 11:04:00,
2013-01-03 02:09:00,35.1,27.3,29.12,SE,135,0.0,0.0,73,0.00,CLR,SCT,0.00,WeatherDisplay:10.37,2013-01-03 11:09:00,
2013-01-03 02:14:00,34.9,27.1,29.12,SE,135,3.5,3.5,73,0.00,CLR,SCT,0.00,WeatherDisplay:10.37,2013-01-03 11:14:00,
2013-01-03 02:19:00,35.1,27.3,29.12,SE,135,3.5,3.5,73,0.00,CLR,SCT,0.00,WeatherDisplay:10.37,2013-01-03 11:19:00,
2013-01-03 02:24:00,34.9,27.1,29.12,SE,135,2.3,0.0,73,0.00,CLR,SCT,0.00,WeatherDisplay:10.37,2013-01-03 11:24:00,
2013-01-03 02:30:00,34.3,26.9,29.12,SE,135,0.0,0.0,74,0.00,CLR,SCT,0.00,WeatherDisplay:10.37,2013-01-03 11:30:00,
2013-01-03 02:35:00,34.2,26.7,29.12,SE,135,0.0,0.0,74,0.00,CLR,SCT,0.00,WeatherDisplay:10.37,2013-01-03 11:35:00,
2013-01-03 02:39:00,34.0,26.9,29.12,SE,135,4.6,4.6,75,0.00,CLR,SCT,0.00,WeatherDisplay:10.37,2013-01-03 11:39:00,
2013-01-03 02:44:00,34.7,27.6,29.12,SE,135,4.6,4.6,75,0.00,CLR,SCT,0.00,WeatherDisplay:10.37,2013-01-03 11:44:00,
2013-01-03 02:49:00,34.3,27.2,29.12,SE,135,3.6,3.6,75,0.00,CLR,SCT,0.00,WeatherDisplay:10.37,2013-01-03 11:49:00,
2013-01-03 02:55:00,34.5,27.4,29.12,SE,135,4.6,4.6,75,0.00,CLR,SCT,0.00,WeatherDisplay:10.37,2013-01-03 11:55:00,
2013-01-03 03:00:00,34.3,27.2,29.12,SE,135,4.6,4.6,75,0.00,CLR,SCT,0.00,WeatherDisplay:10.37,2013-01-03 12:00:00,
2013-01-03 03:05:00,34.2,27.4,29.12,SE,135,4.6,4.6,76,0.00,CLR,SCT,0.00,WeatherDisplay:10.37,2013-01-03 12:05:00,
2013-01-03 03:10:00,34.5,28.1,29.12,SE,135,5.8,5.8,77,0.00,CLR,SCT,0.00,WeatherDisplay:10.37,2013-01-03 12:10:00,
2013-01-03 03:15:00,34.5,27.7,29.12,SE,135,5.8,5.8,76,0.00,CLR,SCT,0.00,WeatherDisplay:10.37,2013-01-03 12:15:00,
2013-01-03 03:20:00,35.1,27.9,29.12,SE,135,5.8,5.8,75,0.00,CLR,SCT,0.00,WeatherDisplay:10.37,2013-01-03 12:20:00,
2013-01-03 03:25:00,35.6,27.8,29.12,SE,135,5.8,5.8,73,0.00,CLR,SCT,0.00,WeatherDisplay:10.37,2013-01-03 12:25:00,
2013-01-03 03:30:00,36.1,27.6,29.12,SE,135,8.1,8.1,71,0.00,CLR,SCT,0.00,WeatherDisplay:10.37,2013-01-03 12:30:00,
2013-01-03 03:35:00,36.0,27.1,29.12,ESE,112,3.6,3.6,70,0.00,CLR,SCT,0.00,WeatherDisplay:10.37,2013-01-03 12:35:00,
2013-01-03 03:40:00,35.6,27.1,29.12,SE,135,4.9,4.9,71,0.00,CLR,SCT,0.00,WeatherDisplay:10.37,2013-01-03 12:40:00,
2013-01-03 03:45:00,35.6,27.5,29.12,SE,135,5.9,5.9,72,0.00,CLR,SCT,0.00,WeatherDisplay:10.37,2013-01-03 12:45:00,
2013-01-03 03:50:00,36.0,27.5,29.12,SE,135,4.6,4.6,71,0.00,CLR,SCT,0.00,WeatherDisplay:10.37,2013-01-03 12:50:00,
2013-01-03 03:55:00,36.0,27.5,29.12,SE,135,3.6,3.6,71,0.00,CLR,SCT,0.00,WeatherDisplay:10.37,2013-01-03 12:55:00,
2013-01-03 04:00:00,36.0,27.8,29.12,SE,135,4.9,4.9,72,0.00,CLR,SCT,0.00,WeatherDisplay:10.37,2013-01-03 13:00:00,
2013-01-03 04:05:00,36.1,28.0,29.12,SE,135,4.6,4.6,72,0.00,CLR,SCT,0.00,WeatherDisplay:10.37,2013-01-03 13:05:00,
2013-01-03 04:10:00,36.3,28.2,29.12,SSE,158,5.8,5.9,72,0.00,CLR,SCT,0.00,WeatherDisplay:10.37,2013-01-03 13:10:00,
2013-01-03 04:15:00,37.0,28.2,29.12,SE,135,6.9,6.9,70,0.00,CLR,SCT,0.00,WeatherDisplay:10.37,2013-01-03 13:15:00,
2013-01-03 04:20:00,36.7,27.5,29.12,SE,135,5.8,5.8,69,0.00,CLR,SCT,0.00,WeatherDisplay:10.37,2013-01-03 13:20:00,
2013-01-03 04:25:00,36.7,27.5,29.12,SE,135,2.3,0.0,69,0.00,CLR,SCT,0.00,WeatherDisplay:10.37,2013-01-03 13:25:00,
2013-01-03 04:30:00,36.1,26.9,29.12,SE,135,3.5,3.5,69,0.00,CLR,SCT,0.00,WeatherDisplay:10.37,2013-01-03 13:30:00,
2013-01-03 04:35:00,36.1,27.3,29.12,SE,135,4.6,4.6,70,0.00,CLR,SCT,0.00,WeatherDisplay:10.37,2013-01-03 13:35:00,
2013-01-03 04:40:00,36.0,27.5,29.12,SE,135,3.6,3.6,71,0.00,CLR,SCT,0.00,WeatherDisplay:10.37,2013-01-03 13:40:00,
2013-01-03 04:45:00,36.0,27.8,29.12,SE,135,4.6,0.0,72,0.00,CLR,SCT,0.00,WeatherDisplay:10.37,2013-01-03 13:45:00,
2013-01-03 04:50:00,35.6,27.8,29.12,SE,135,3.5,0.0,73,0.00,CLR,SCT,0.00,WeatherDisplay:10.37,2013-01-03 13:50:00,
2013-01-03 04:55:00,35.4,28.3,29.12,SE,135,4.6,4.6,75,0.00,CLR,SCT,0.00,WeatherDisplay:10.37,2013-01-03 13:55:00,
2013-01-03 05:00:00,35.6,28.8,29.12,SE,135,2.3,2.3,76,0.00,CLR,SCT,0.00,WeatherDisplay:10.37,2013-01-03 14:00:00,
2013-01-03 05:05:00,35.4,28.9,29.12,ESE,112,0.0,0.0,77,0.00,CLR,SCT,0.00,WeatherDisplay:10.37,2013-01-03 14:05:00,
2013-01-03 05:10:00,35.1,28.9,29.12,ENE,68,0.0,0.0,78,0.00,CLR,SCT,0.00,WeatherDisplay:10.37,2013-01-03 14:10:00,
2013-01-03 05:15:00,35.1,28.9,29.12,ENE,68,0.0,0.0,78,0.00,CLR,SCT,0.00,WeatherDisplay:10.37,2013-01-03 14:15:00,
2013-01-03 05:20:00,35.2,29.1,29.12,ENE,68,0.0,0.0,78,0.00,CLR,SCT,0.00,WeatherDisplay:10.37,2013-01-03 14:20:00,
2013-01-03 05:25:00,35.2,29.1,29.15,ENE,68,0.0,0.0,78,0.00,CLR,SCT,0.00,WeatherDisplay:10.37,2013-01-03 14:25:00,
2013-01-03 05:30:00,35.1,29.2,29.15,East,90,3.5,3.5,79,0.00,CLR,SCT,0.00,WeatherDisplay:10.37,2013-01-03 14:30:00,
2013-01-03 05:35:00,34.5,28.7,29.15,East,90,0.0,0.0,79,0.00,CLR,SCT,0.00,WeatherDisplay:10.37,2013-01-03 14:35:00,
2013-01-03 05:40:00,34.7,29.2,29.12,East,90,0.0,0.0,80,0.00,CLR,SCT,0.00,WeatherDisplay:10.37,2013-01-03 14:40:00,
2013-01-03 05:45:00,34.5,29.3,29.12,East,90,0.0,0.0,81,0.00,CLR,SCT,0.00,WeatherDisplay:10.37,2013-01-03 14:45:00,
2013-01-03 05:50:00,35.1,30.1,29.12,East,90,0.0,0.0,82,0.00,CLR,SCT,0.00,WeatherDisplay:10.37,2013-01-03 14:50:00,
2013-01-03 05:55:00,34.9,30.2,29.12,East,90,0.0,0.0,83,0.00,CLR,SCT,0.00,WeatherDisplay:10.37,2013-01-03 14:55:00,
2013-01-03 06:00:00,34.9,30.5,29.12,East,90,4.6,4.6,84,0.00,CLR,SCT,0.00,WeatherDisplay:10.37,2013-01-03 15:00:00,
2013-01-03 06:05:00,35.1,30.4,29.12,East,90,2.3,0.0,83,0.00,CLR,SCT,0.00,WeatherDisplay:10.37,2013-01-03 15:05:00,
2013-01-03 06:10:00,34.9,29.9,29.12,ENE,68,3.1,0.0,82,0.00,CLR,SCT,0.00,WeatherDisplay:10.37,2013-01-03 15:10:00,
2013-01-03 06:15:00,34.5,29.3,29.12,ENE,68,3.5,0.0,81,0.00,CLR,SCT,0.00,WeatherDisplay:10.37,2013-01-03 15:15:00,
2013-01-03 06:20:00,34.5,29.3,29.12,SSE,158,0.0,0.0,81,0.00,CLR,SCT,0.00,WeatherDisplay:10.37,2013-01-03 15:20:00,
2013-01-03 06:25:00,35.4,30.2,29.12,SE,135,5.8,5.8,81,0.00,CLR,SCT,0.00,WeatherDisplay:10.37,2013-01-03 15:25:00,
2013-01-03 06:30:00,35.6,30.0,29.12,SE,135,5.8,5.8,80,0.00,CLR,SCT,0.00,WeatherDisplay:10.37,2013-01-03 15:30:00,
2013-01-03 06:35:00,35.6,29.7,29.12,SSE,158,4.6,4.6,79,0.00,CLR,SCT,0.00,WeatherDisplay:10.37,2013-01-03 15:35:00,
2013-01-03 06:40:00,35.8,29.6,29.12,SSE,158,5.8,5.8,78,0.00,CLR,SCT,0.00,WeatherDisplay:10.37,2013-01-03 15:40:00,
2013-01-03 06:45:00,35.8,29.6,29.12,SE,135,4.6,4.6,78,0.00,CLR,SCT,0.00,WeatherDisplay:10.37,2013-01-03 15:45:00,
2013-01-03 06:50:00,35.8,29.6,29.12,SE,135,3.5,3.5,78,0.00,CLR,SCT,0.00,WeatherDisplay:10.37,2013-01-03 15:50:00,
2013-01-03 06:55:00,35.2,29.1,29.12,SE,135,3.5,0.0,78,0.00,CLR,SCT,0.00,WeatherDisplay:10.37,2013-01-03 15:55:00,
2013-01-03 07:00:00,35.1,28.9,29.12,SE,135,3.1,0.0,78,0.00,CLR,SCT,0.00,WeatherDisplay:10.37,2013-01-03 16:00:00,
2013-01-03 07:05:00,34.7,28.9,29.12,SE,135,0.0,0.0,79,0.00,CLR,SCT,0.00,WeatherDisplay:10.37,2013-01-03 16:05:00,
2013-01-03 07:10:00,34.7,28.9,29.12,SE,135,0.0,0.0,79,0.00,CLR,SCT,0.00,WeatherDisplay:10.37,2013-01-03 16:10:00,
2013-01-03 07:15:00,34.9,29.3,29.12,SE,135,2.3,0.0,80,0.00,CLR,SCT,0.00,WeatherDisplay:10.37,2013-01-03 16:15:00,
2013-01-03 07:20:00,35.1,29.5,29.12,SE,135,2.6,0.0,80,0.00,CLR,SCT,0.00,WeatherDisplay:10.37,2013-01-03 16:20:00,
2013-01-03 07:25:00,35.1,29.5,29.12,SE,135,0.0,0.0,80,0.00,CLR,SCT,0.00,WeatherDisplay:10.37,2013-01-03 16:25:00,
2013-01-03 07:30:00,35.1,29.5,29.12,SE,135,0.0,0.0,80,0.00,CLR,SCT,0.00,WeatherDisplay:10.37,2013-01-03 16:30:00,
2013-01-03 07:35:00,35.4,29.9,29.12,ENE,68,4.6,4.6,80,0.00,CLR,SCT,0.00,WeatherDisplay:10.37,2013-01-03 16:35:00,
2013-01-03 07:40:00,35.6,29.7,29.09,ESE,112,3.5,0.0,79,0.00,CLR,SCT,0.00,WeatherDisplay:10.37,2013-01-03 16:40:00,
2013-01-03 07:45:00,35.6,29.4,29.09,ESE,112,2.3,0.0,78,0.00,CLR,SCT,0.00,WeatherDisplay:10.37,2013-01-03 16:45:00,
2013-01-03 07:50:00,35.6,29.4,29.09,ESE,112,0.0,0.0,78,0.00,CLR,SCT,0.00,WeatherDisplay:10.37,2013-01-03 16:50:00,
2013-01-03 07:55:00,35.6,29.4,29.09,ESE,112,3.1,0.0,78,0.00,CLR,SCT,0.00,WeatherDisplay:10.37,2013-01-03 16:55:00,
2013-01-03 08:00:00,35.8,29.6,29.09,SE,135,4.6,4.6,78,0.00,CLR,SCT,0.00,WeatherDisplay:10.37,2013-01-03 17:00:00,
2013-01-03 08:05:00,35.8,29.3,29.09,SE,135,2.3,0.0,77,0.00,CLR,SCT,0.00,WeatherDisplay:10.37,2013-01-03 17:05:00,
2013-01-03 08:10:00,35.6,29.1,29.09,SE,135,2.6,0.0,77,0.00,CLR,SCT,0.00,WeatherDisplay:10.37,2013-01-03 17:10:00,
2013-01-03 08:15:00,35.6,29.1,29.09,SE,135,2.3,2.3,77,0.00,CLR,SCT,0.00,WeatherDisplay:10.37,2013-01-03 17:15:00,
2013-01-03 08:20:00,35.4,28.9,29.09,SE,135,2.3,0.0,77,0.00,CLR,SCT,0.00,WeatherDisplay:10.37,2013-01-03 17:20:00,
2013-01-03 08:25:00,35.6,29.1,29.09,SE,135,4.6,4.6,77,0.00,CLR,SCT,0.00,WeatherDisplay:10.37,2013-01-03 17:25:00,
2013-01-03 08:30:00,35.4,29.2,29.09,SE,135,3.5,0.0,78,0.00,CLR,SCT,0.00,WeatherDisplay:10.37,2013-01-03 17:30:00,
2013-01-03 08:36:00,35.6,29.7,29.09,SE,135,3.5,3.5,79,0.00,CLR,SCT,0.00,WeatherDisplay:10.37,2013-01-03 17:36:00,
2013-01-03 08:41:00,35.4,30.2,29.09,SE,135,3.5,3.5,81,0.00,CLR,SCT,0.00,WeatherDisplay:10.37,2013-01-03 17:41:00,
2013-01-03 08:46:00,35.8,30.8,29.09,SE,135,4.9,4.9,82,0.00,CLR,SCT,0.00,WeatherDisplay:10.37,2013-01-03 17:46:00,
2013-01-03 08:51:00,35.8,31.1,29.09,SE,135,4.6,4.6,83,0.00,CLR,SCT,0.00,WeatherDisplay:10.37,2013-01-03 17:51:00,
2013-01-03 08:56:00,35.8,31.4,29.09,SE,135,3.5,3.5,84,0.00,CLR,SCT,0.00,WeatherDisplay:10.37,2013-01-03 17:56:00,
2013-01-03 09:01:00,36.0,31.9,29.09,SE,135,3.5,3.5,85,0.00,CLR,SCT,0.00,WeatherDisplay:10.37,2013-01-03 18:01:00,
2013-01-03 09:06:00,36.0,31.9,29.09,SE,135,3.6,3.6,85,0.00,CLR,SCT,0.00,WeatherDisplay:10.37,2013-01-03 18:06:00,
2013-01-03 09:11:00,35.6,31.5,29.09,SE,135,0.0,0.0,85,0.00,CLR,SCT,0.00,WeatherDisplay:10.37,2013-01-03 18:11:00,
2013-01-03 09:16:00,35.6,31.8,29.09,SE,135,0.0,0.0,86,0.00,CLR,SCT,0.00,WeatherDisplay:10.37,2013-01-03 18:16:00,
2013-01-03 09:21:00,35.4,31.6,29.09,SE,135,0.0,0.0,86,0.00,CLR,SCT,0.00,WeatherDisplay:10.37,2013-01-03 18:21:00,
2013-01-03 09:26:00,35.8,32.0,29.09,SE,135,4.0,4.0,86,0.00,CLR,SCT,0.00,WeatherDisplay:10.37,2013-01-03 18:26:00,
2013-01-03 09:31:00,35.8,32.0,29.09,SE,135,2.3,0.0,86,0.00,CLR,SCT,0.00,WeatherDisplay:10.37,2013-01-03 18:31:00,
2013-01-03 09:36:00,35.8,32.3,29.09,SE,135,2.3,0.0,87,0.00,CLR,SCT,0.00,WeatherDisplay:10.37,2013-01-03 18:36:00,
2013-01-03 09:41:00,35.8,32.3,29.12,SE,135,0.0,0.0,87,0.00,CLR,SCT,0.00,WeatherDisplay:10.37,2013-01-03 18:41:00,
2013-01-03 09:46:00,36.1,32.6,29.12,SE,135,0.0,0.0,87,0.00,CLR,SCT,0.00,WeatherDisplay:10.37,2013-01-03 18:46:00,
2013-01-03 09:51:00,36.1,32.9,29.12,SE,135,0.0,0.0,88,0.00,CLR,SCT,0.00,WeatherDisplay:10.37,2013-01-03 18:51:00,
2013-01-03 09:56:00,36.3,33.1,29.12,SE,135,0.0,0.0,88,0.00,CLR,SCT,0.00,WeatherDisplay:10.37,2013-01-03 18:56:00,
2013-01-03 10:01:00,36.7,33.5,29.12,SE,135,2.2,0.0,88,0.00,CLR,SCT,0.00,WeatherDisplay:10.37,2013-01-03 19:01:00,
2013-01-03 10:06:00,36.9,33.6,29.12,SE,135,3.5,0.0,88,0.00,CLR,SCT,0.00,WeatherDisplay:10.37,2013-01-03 19:06:00,
2013-01-03 10:11:00,36.7,33.7,29.12,SE,135,0.0,0.0,89,0.00,CLR,SCT,0.00,WeatherDisplay:10.37,2013-01-03 19:11:00,
2013-01-03 10:16:00,36.5,33.6,29.12,SE,135,2.3,0.0,89,0.00,CLR,SCT,0.00,WeatherDisplay:10.37,2013-01-03 19:16:00,
2013-01-03 10:55:00,37.9,35.5,29.12,SE,135,5.8,5.8,91,0.00,CLR,SCT,0.00,WeatherDisplay:10.37,2013-01-03 19:55:00,
2013-01-03 11:00:00,37.9,35.5,29.12,SE,135,7.1,7.1,91,0.00,CLR,SCT,0.00,WeatherDisplay:10.37,2013-01-03 20:00:00,
2013-01-03 11:05:00,37.9,35.5,29.12,SE,135,5.8,6.2,91,0.00,CLR,SCT,0.00,WeatherDisplay:10.37,2013-01-03 20:05:00,
2013-01-03 11:10:00,37.9,35.5,29.12,SE,135,8.1,8.1,91,0.00,CLR,SCT,0.00,WeatherDisplay:10.37,2013-01-03 20:10:00,
2013-01-03 11:15:00,38.3,36.2,29.12,SSE,158,8.1,8.1,92,0.00,CLR,SCT,0.00,WeatherDisplay:10.37,2013-01-03 20:15:00,
2013-01-03 11:20:00,38.3,36.2,29.12,SE,135,6.9,6.9,92,0.00,CLR,SCT,0.00,WeatherDisplay:10.37,2013-01-03 20:20:00,
2013-01-03 11:25:00,38.5,36.6,29.15,SE,135,7.1,7.1,93,0.00,CLR,SCT,0.00,WeatherDisplay:10.37,2013-01-03 20:25:00,
2013-01-03 11:30:00,38.7,36.8,29.15,SE,135,8.1,8.1,93,0.00,CLR,SCT,0.00,WeatherDisplay:10.37,2013-01-03 20:30:00,
2013-01-03 11:35:00,38.8,37.0,29.15,SE,135,6.7,6.7,93,0.00,CLR,SCT,0.00,WeatherDisplay:10.37,2013-01-03 20:35:00,
2013-01-03 11:40:00,39.0,37.4,29.15,SE,135,5.8,5.8,94,0.00,CLR,SCT,0.00,WeatherDisplay:10.37,2013-01-03 20:40:00,
2013-01-03 11:45:00,39.2,37.3,29.15,SE,135,5.9,5.9,93,0.00,CLR,SCT,0.00,WeatherDisplay:10.37,2013-01-03 20:45:00,
2013-01-03 11:50:00,39.4,37.8,29.15,SE,135,4.9,4.9,94,0.00,CLR,SCT,0.00,WeatherDisplay:10.37,2013-01-03 20:50:00,
2013-01-03 11:55:00,39.4,37.8,29.15,SE,135,5.4,5.4,94,0.00,CLR,SCT,0.00,WeatherDisplay:10.37,2013-01-03 20:55:00,
2013-01-03 12:00:00,39.7,38.2,29.15,SE,135,5.8,5.8,94,0.00,CLR,SCT,0.00,WeatherDisplay:10.37,2013-01-03 21:00:00,
2013-01-03 12:05:00,39.7,38.2,29.15,SE,135,5.9,5.9,94,0.00,CLR,SCT,0.00,WeatherDisplay:10.37,2013-01-03 21:05:00,
2013-01-03 12:11:00,39.9,38.3,29.15,SE,135,4.9,4.9,94,0.00,CLR,SCT,0.00,WeatherDisplay:10.37,2013-01-03 21:11:00,
2013-01-03 12:16:00,40.1,38.5,29.15,SE,135,4.6,4.6,94,0.00,CLR,SCT,0.00,WeatherDisplay:10.37,2013-01-03 21:16:00,
2013-01-03 12:21:00,40.3,39.0,29.15,SE,135,3.6,3.6,95,0.00,CLR,SCT,0.00,WeatherDisplay:10.37,2013-01-03 21:21:00,
2013-01-03 12:26:00,40.5,39.1,29.15,SE,135,4.6,4.6,95,0.00,CLR,SCT,0.00,WeatherDisplay:10.37,2013-01-03 21:26:00,
2013-01-03 12:31:00,40.6,39.3,29.15,SE,135,4.6,4.6,95,0.00,CLR,SCT,0.00,WeatherDisplay:10.37,2013-01-03 21:31:00,
2013-01-03 12:36:00,40.8,39.5,29.15,SE,135,4.6,4.6,95,0.00,CLR,SCT,0.00,WeatherDisplay:10.37,2013-01-03 21:36:00,
2013-01-03 12:41:00,41.0,39.7,29.12,SE,135,5.8,5.8,95,0.00,CLR,SCT,0.00,WeatherDisplay:10.37,2013-01-03 21:41:00,
2013-01-03 12:46:00,41.2,39.9,29.12,SE,135,4.6,4.6,95,0.00,CLR,SCT,0.00,WeatherDisplay:10.37,2013-01-03 21:46:00,
2013-01-03 12:51:00,41.5,40.2,29.12,SE,135,4.6,4.6,95,0.00,CLR,SCT,0.00,WeatherDisplay:10.37,2013-01-03 21:51:00,
2013-01-03 12:56:00,41.7,40.4,29.12,SE,135,3.5,3.5,95,0.00,CLR,SCT,0.00,WeatherDisplay:10.37,2013-01-03 21:56:00,
2013-01-03 13:01:00,42.1,40.8,29.12,SE,135,5.8,5.8,95,0.00,CLR,SCT,0.00,WeatherDisplay:10.37,2013-01-03 22:01:00,
2013-01-03 13:06:00,42.3,40.9,29.15,SE,135,4.9,4.9,95,0.00,CLR,SCT,0.00,WeatherDisplay:10.37,2013-01-03 22:06:00,
2013-01-03 13:11:00,42.8,41.5,29.15,SE,135,3.5,3.5,95,0.00,CLR,SCT,0.00,WeatherDisplay:10.37,2013-01-03 22:11:00,
2013-01-03 13:16:00,42.8,41.5,29.15,SE,135,4.6,4.6,95,0.00,CLR,SCT,0.00,WeatherDisplay:10.37,2013-01-03 22:16:00,
2013-01-03 13:21:00,42.8,41.5,29.15,SE,135,2.3,0.0,95,0.00,CLR,SCT,0.00,WeatherDisplay:10.37,2013-01-03 22:21:00,
2013-01-03 13:26:00,42.8,41.5,29.15,SE,135,2.6,2.6,95,0.00,CLR,SCT,0.00,WeatherDisplay:10.37,2013-01-03 22:26:00,
2013-01-03 13:31:00,42.8,41.5,29.15,SE,135,3.5,3.5,95,0.00,CLR,SCT,0.00,WeatherDisplay:10.37,2013-01-03 22:31:00,
2013-01-03 13:36:00,42.8,41.5,29.15,SE,135,4.0,4.0,95,0.00,CLR,SCT,0.00,WeatherDisplay:10.37,2013-01-03 22:36:00,
2013-01-03 13:41:00,43.0,41.6,29.15,SE,135,4.0,4.0,95,0.00,CLR,SCT,0.00,WeatherDisplay:10.37,2013-01-03 22:41:00,
2013-01-03 13:47:00,43.0,41.6,29.15,SE,135,3.5,3.5,95,0.00,CLR,SCT,0.00,WeatherDisplay:10.37,2013-01-03 22:47:00,
2013-01-03 13:52:00,43.0,41.6,29.15,SE,135,2.6,0.0,95,0.00,CLR,SCT,0.00,WeatherDisplay:10.37,2013-01-03 22:52:00,
2013-01-03 13:57:00,43.2,41.8,29.15,SE,135,2.3,0.0,95,0.00,CLR,SCT,0.00,WeatherDisplay:10.37,2013-01-03 22:57:00,
2013-01-03 14:02:00,43.0,41.6,29.15,SE,135,0.0,0.0,95,0.00,CLR,SCT,0.00,WeatherDisplay:10.37,2013-01-03 23:02:00,
2013-01-03 14:07:00,43.0,41.6,29.18,SE,135,0.0,0.0,95,0.00,CLR,SCT,0.00,WeatherDisplay:10.37,2013-01-03 23:07:00,
2013-01-03 14:12:00,43.0,41.6,29.18,SE,135,0.0,0.0,95,0.00,CLR,SCT,0.00,WeatherDisplay:10.37,2013-01-03 23:12:00,
2013-01-03 14:17:00,42.8,41.5,29.18,SE,135,0.0,0.0,95,0.00,CLR,SCT,0.00,WeatherDisplay:10.37,2013-01-03 23:17:00,
2013-01-03 14:22:00,43.0,41.9,29.15,SE,135,0.0,0.0,96,0.00,CLR,SCT,0.00,WeatherDisplay:10.37,2013-01-03 23:22:00,
2013-01-03 14:27:00,43.0,41.9,29.15,SE,135,0.0,0.0,96,0.00,CLR,SCT,0.00,WeatherDisplay:10.37,2013-01-03 23:27:00,
2013-01-03 14:32:00,43.0,41.9,29.15,SE,135,0.0,0.0,96,0.00,CLR,SCT,0.00,WeatherDisplay:10.37,2013-01-03 23:32:00,
2013-01-03 14:37:00,43.0,41.9,29.15,SE,135,0.0,0.0,96,0.00,CLR,SCT,0.00,WeatherDisplay:10.37,2013-01-03 23:37:00,
2013-01-03 14:42:00,43.0,41.9,29.15,SE,135,0.0,0.0,96,0.00,CLR,SCT,0.00,WeatherDisplay:10.37,2013-01-03 23:42:00,
2013-01-03 14:47:00,43.2,42.1,29.15,SE,135,0.0,0.0,96,0.00,CLR,SCT,0.00,WeatherDisplay:10.37,2013-01-03 23:47:00,
2013-01-03 14:52:00,43.2,42.1,29.15,SE,135,0.0,0.0,96,0.00,CLR,SCT,0.00,WeatherDisplay:10.37,2013-01-03 23:52:00,
2013-01-03 14:57:00,43.3,42.3,29.15,NW,315,3.5,3.6,96,0.00,CLR,SCT,0.00,WeatherDisplay:10.37,2013-01-03 23:57:00,
2013-01-03 15:02:00,43.0,41.9,29.15,NW,315,3.5,3.5,96,0.00,CLR,SCT,0.00,WeatherDisplay:10.37,2013-01-04 00:02:00,
2013-01-03 15:07:00,43.0,41.9,29.15,NW,315,0.0,0.0,96,0.00,CLR,SCT,0.00,WeatherDisplay:10.37,2013-01-04 00:07:00,
2013-01-03 15:12:00,42.8,41.7,29.15,NW,315,0.0,0.0,96,0.00,CLR,SCT,0.00,WeatherDisplay:10.37,2013-01-04 00:12:00,
2013-01-03 15:17:00,42.8,41.7,29.15,NW,315,3.5,3.5,96,0.00,CLR,SCT,0.00,WeatherDisplay:10.37,2013-01-04 00:17:00,
2013-01-03 15:22:00,42.6,41.6,29.15,NW,315,0.0,0.0,96,0.00,CLR,SCT,0.00,WeatherDisplay:10.37,2013-01-04 00:22:00,
2013-01-03 15:27:00,42.6,41.6,29.15,NW,315,0.0,0.0,96,0.00,CLR,SCT,0.00,WeatherDisplay:10.37,2013-01-04 00:27:00,
2013-01-03 15:32:00,42.6,41.6,29.15,NW,315,0.0,0.0,96,0.00,CLR,SCT,0.00,WeatherDisplay:10.37,2013-01-04 00:32:00,
2013-01-03 15:37:00,42.4,41.4,29.15,NW,315,0.0,0.0,96,0.00,CLR,SCT,0.00,WeatherDisplay:10.37,2013-01-04 00:37:00,
2013-01-03 15:42:00,42.4,41.4,29.15,NW,315,0.0,0.0,96,0.00,CLR,SCT,0.00,WeatherDisplay:10.37,2013-01-04 00:42:00,
2013-01-03 15:47:00,42.4,41.4,29.15,NW,315,0.0,0.0,96,0.00,CLR,SCT,0.00,WeatherDisplay:10.37,2013-01-04 00:47:00,
2013-01-03 15:52:00,42.4,41.4,29.18,NW,315,0.0,0.0,96,0.00,CLR,SCT,0.00,WeatherDisplay:10.37,2013-01-04 00:52:00,
2013-01-03 15:57:00,42.6,41.6,29.18,NW,315,0.0,0.0,96,0.00,CLR,SCT,0.00,WeatherDisplay:10.37,2013-01-04 00:57:00,
2013-01-03 16:02:00,42.8,41.7,29.18,NW,315,0.0,0.0,96,0.00,CLR,SCT,0.00,WeatherDisplay:10.37,2013-01-04 01:02:00,
2013-01-03 16:07:00,43.2,42.1,29.15,NNW,338,0.0,0.0,96,0.00,CLR,SCT,0.00,WeatherDisplay:10.37,2013-01-04 01:07:00,
2013-01-03 16:12:00,43.3,42.3,29.15,NNW,338,0.0,0.0,96,0.00,CLR,SCT,0.00,WeatherDisplay:10.37,2013-01-04 01:12:00,
2013-01-03 16:17:00,43.5,42.5,29.15,NNW,338,0.0,0.0,96,0.00,CLR,SCT,0.00,WeatherDisplay:10.37,2013-01-04 01:17:00,
2013-01-03 16:22:00,43.7,42.6,29.15,North,0,0.0,0.0,96,0.00,CLR,SCT,0.00,WeatherDisplay:10.37,2013-01-04 01:22:00,
2013-01-03 16:27:00,43.7,42.6,29.15,North,0,0.0,0.0,96,0.00,CLR,SCT,0.00,WeatherDisplay:10.37,2013-01-04 01:27:00,
2013-01-03 16:32:00,43.9,42.8,29.15,North,0,0.0,0.0,96,0.00,CLR,SCT,0.00,WeatherDisplay:10.37,2013-01-04 01:32:00,
2013-01-03 16:37:00,44.1,43.0,29.15,North,0,0.0,0.0,96,0.00,CLR,SCT,0.00,WeatherDisplay:10.37,2013-01-04 01:37:00,
2013-01-03 16:42:00,44.1,43.0,29.15,NNE,22,0.0,0.0,96,0.00,CLR,SCT,0.00,WeatherDisplay:10.37,2013-01-04 01:42:00,
2013-01-03 16:47:00,43.9,42.8,29.15,NNE,22,0.0,0.0,96,0.00,CLR,SCT,0.00,WeatherDisplay:10.37,2013-01-04 01:47:00,
2013-01-03 16:52:00,44.1,43.0,29.15,NNE,22,0.0,0.0,96,0.00,CLR,SCT,0.00,WeatherDisplay:10.37,2013-01-04 01:52:00,
2013-01-03 16:57:00,43.9,42.8,29.15,NNE,22,0.0,0.0,96,0.00,CLR,SCT,0.00,WeatherDisplay:10.37,2013-01-04 01:57:00,
2013-01-03 17:02:00,44.1,43.0,29.15,ENE,68,0.0,0.0,96,0.00,CLR,SCT,0.00,WeatherDisplay:10.37,2013-01-04 02:02:00,
2013-01-03 17:07:00,43.7,42.6,29.15,ENE,68,0.0,0.0,96,0.00,CLR,SCT,0.00,WeatherDisplay:10.37,2013-01-04 02:07:00,
2013-01-03 17:12:00,43.5,42.5,29.15,ENE,68,0.0,0.0,96,0.00,CLR,SCT,0.00,WeatherDisplay:10.37,2013-01-04 02:12:00,
2013-01-03 17:17:00,43.3,42.3,29.15,ENE,68,3.5,0.0,96,0.00,CLR,SCT,0.00,WeatherDisplay:10.37,2013-01-04 02:17:00,
2013-01-03 17:22:00,42.8,41.7,29.15,ENE,68,4.9,0.0,96,0.00,CLR,SCT,0.00,WeatherDisplay:10.37,2013-01-04 02:22:00,
2013-01-03 17:27:00,42.3,41.2,29.15,ENE,68,4.6,0.0,96,0.00,CLR,SCT,0.00,WeatherDisplay:10.37,2013-01-04 02:27:00,
2013-01-03 17:32:00,41.7,40.7,29.15,ENE,68,3.5,0.0,96,0.00,CLR,SCT,0.00,WeatherDisplay:10.37,2013-01-04 02:32:00,
2013-01-03 17:37:00,41.4,40.0,29.15,East,90,0.0,0.0,95,0.00,CLR,SCT,0.00,WeatherDisplay:10.37,2013-01-04 02:37:00,
2013-01-03 17:42:00,41.0,39.7,29.15,East,90,2.6,0.0,95,0.00,CLR,SCT,0.00,WeatherDisplay:10.37,2013-01-04 02:42:00,
2013-01-03 17:47:00,41.0,39.7,29.15,East,90,2.3,0.0,95,0.00,CLR,SCT,0.00,WeatherDisplay:10.37,2013-01-04 02:47:00,
2013-01-03 17:52:00,40.8,39.8,29.15,ENE,68,0.0,0.0,96,0.00,CLR,SCT,0.00,WeatherDisplay:10.37,2013-01-04 02:52:00,
2013-01-03 17:57:00,40.5,39.1,29.15,ENE,68,2.6,0.0,95,0.00,CLR,SCT,0.00,WeatherDisplay:10.37,2013-01-04 02:57:00,
2013-01-03 18:02:00,40.1,38.8,29.15,ENE,68,3.5,3.5,95,0.00,CLR,SCT,0.00,WeatherDisplay:10.37,2013-01-04 03:02:00,
2013-01-03 18:07:00,39.9,38.6,29.15,ENE,68,3.5,0.0,95,0.00,CLR,SCT,0.00,WeatherDisplay:10.37,2013-01-04 03:07:00,
2013-01-03 18:12:00,39.7,38.4,29.15,ENE,68,0.0,0.0,95,0.00,CLR,SCT,0.00,WeatherDisplay:10.37,2013-01-04 03:12:00,
2013-01-03 18:17:00,39.6,38.2,29.15,ENE,68,0.0,0.0,95,0.00,CLR,SCT,0.00,WeatherDisplay:10.37,2013-01-04 03:17:00,
2013-01-03 18:22:00,39.4,38.1,29.15,ENE,68,3.5,3.5,95,0.00,CLR,SCT,0.00,WeatherDisplay:10.37,2013-01-04 03:22:00,
2013-01-03 18:27:00,39.2,37.6,29.15,ENE,68,4.6,0.0,94,0.00,CLR,SCT,0.00,WeatherDisplay:10.37,2013-01-04 03:27:00,
2013-01-03 18:32:00,39.2,37.6,29.15,ENE,68,4.6,4.6,94,0.00,CLR,SCT,0.00,WeatherDisplay:10.37,2013-01-04 03:32:00,
2013-01-03 18:37:00,39.0,37.4,29.15,ENE,68,4.6,4.6,94,0.00,CLR,SCT,0.00,WeatherDisplay:10.37,2013-01-04 03:37:00,
2013-01-03 18:42:00,39.0,37.4,29.15,ENE,68,3.5,3.5,94,0.00,CLR,SCT,0.00,WeatherDisplay:10.37,2013-01-04 03:42:00,
2013-01-03 18:47:00,38.8,37.0,29.15,ENE,68,3.5,3.5,93,0.00,CLR,SCT,0.00,WeatherDisplay:10.37,2013-01-04 03:47:00,
2013-01-03 18:52:00,38.7,36.8,29.15,ENE,68,6.9,6.9,93,0.00,CLR,SCT,0.00,WeatherDisplay:10.37,2013-01-04 03:52:00,
2013-01-03 18:57:00,38.5,36.6,29.15,ENE,68,3.5,0.0,93,0.00,CLR,SCT,0.00,WeatherDisplay:10.37,2013-01-04 03:57:00,
2013-01-03 19:02:00,38.1,36.0,29.15,ENE,68,0.0,0.0,92,0.00,CLR,SCT,0.00,WeatherDisplay:10.37,2013-01-04 04:02:00,
2013-01-03 19:08:00,37.9,35.8,29.15,ENE,68,0.0,0.0,92,0.00,CLR,SCT,0.00,WeatherDisplay:10.37,2013-01-04 04:08:00,
2013-01-03 19:13:00,37.8,35.6,29.15,ENE,68,0.0,0.0,92,0.00,CLR,SCT,0.00,WeatherDisplay:10.37,2013-01-04 04:13:00,
2013-01-03 19:18:00,37.9,35.8,29.15,ENE,68,2.6,0.0,92,0.00,CLR,SCT,0.00,WeatherDisplay:10.37,2013-01-04 04:18:00,
2013-01-03 19:24:00,37.8,35.6,29.15,ENE,68,3.5,0.0,92,0.00,CLR,SCT,0.00,WeatherDisplay:10.37,2013-01-04 04:24:00,
2013-01-03 19:29:00,37.8,35.4,29.15,ENE,68,4.6,4.6,91,0.00,CLR,SCT,0.00,WeatherDisplay:10.37,2013-01-04 04:29:00,
2013-01-03 19:34:00,37.4,35.0,29.15,ENE,68,3.5,0.0,91,0.00,CLR,SCT,0.00,WeatherDisplay:10.37,2013-01-04 04:34:00,
2013-01-03 19:39:00,37.4,35.0,29.15,ENE,68,0.0,0.0,91,0.00,CLR,SCT,0.00,WeatherDisplay:10.37,2013-01-04 04:39:00,
2013-01-03 19:44:00,37.0,34.7,29.15,ENE,68,0.0,0.0,91,0.00,CLR,SCT,0.00,WeatherDisplay:10.37,2013-01-04 04:44:00,
2013-01-03 19:49:00,37.0,34.7,29.15,ENE,68,0.0,0.0,91,0.00,CLR,SCT,0.00,WeatherDisplay:10.37,2013-01-04 04:49:00,
2013-01-03 19:54:00,37.0,34.7,29.15,ENE,68,0.0,0.0,91,0.00,CLR,SCT,0.00,WeatherDisplay:10.37,2013-01-04 04:54:00,
2013-01-03 19:59:00,37.2,35.1,29.15,ENE,68,0.0,0.0,92,0.00,CLR,SCT,0.00,WeatherDisplay:10.37,2013-01-04 04:59:00,
2013-01-03 20:00:00,37.2,35.1,29.15,ENE,68,0.0,0.0,92,0.00,CLR,SCT,0.00,WeatherDisplay:10.37,2013-01-04 05:00:00,
2013-01-03 20:03:00,37.2,35.1,29.15,ENE,68,0.0,0.0,92,0.00,CLR,SCT,0.00,WeatherDisplay:10.37,2013-01-04 05:03:00,
2013-01-03 20:08:00,37.2,35.1,29.15,ENE,68,0.0,0.0,92,0.00,CLR,SCT,0.00,WeatherDisplay:10.37,2013-01-04 05:08:00,
2013-01-03 20:13:00,37.2,35.1,29.15,ENE,68,0.0,0.0,92,0.00,CLR,SCT,0.00,WeatherDisplay:10.37,2013-01-04 05:13:00,
2013-01-03 20:18:00,37.0,34.9,29.15,ENE,68,0.0,0.0,92,0.00,CLR,SCT,0.00,WeatherDisplay:10.37,2013-01-04 05:18:00,
2013-01-03 20:23:00,37.0,34.9,29.15,ENE,68,0.0,0.0,92,0.00,CLR,SCT,0.00,WeatherDisplay:10.37,2013-01-04 05:23:00,
2013-01-03 20:28:00,37.0,34.9,29.15,ENE,68,0.0,0.0,92,0.00,CLR,SCT,0.00,WeatherDisplay:10.37,2013-01-04 05:28:00,
2013-01-03 20:33:00,36.9,34.8,29.15,ENE,68,0.0,0.0,92,0.00,CLR,SCT,0.00,WeatherDisplay:10.37,2013-01-04 05:33:00,
2013-01-03 20:38:00,36.9,34.8,29.15,ENE,68,0.0,0.0,92,0.00,CLR,SCT,0.00,WeatherDisplay:10.37,2013-01-04 05:38:00,
2013-01-03 20:43:00,36.9,35.0,29.15,ENE,68,3.6,3.6,93,0.00,CLR,SCT,0.00,WeatherDisplay:10.37,2013-01-04 05:43:00,
2013-01-03 20:48:00,36.9,35.0,29.15,ENE,68,2.3,2.3,93,0.00,CLR,SCT,0.00,WeatherDisplay:10.37,2013-01-04 05:48:00,
2013-01-03 21:02:00,37.0,35.2,29.15,ENE,68,3.5,3.5,93,0.00,CLR,SCT,0.00,WeatherDisplay:10.37,2013-01-04 06:02:00,
2013-01-03 21:07:00,37.2,35.4,29.15,ENE,68,2.6,2.6,93,0.00,CLR,SCT,0.00,WeatherDisplay:10.37,2013-01-04 06:07:00,
2013-01-03 21:12:00,37.2,35.4,29.15,ENE,68,2.3,0.0,93,0.00,CLR,SCT,0.00,WeatherDisplay:10.37,2013-01-04 06:12:00,
2013-01-03 21:17:00,37.2,35.7,29.15,ENE,68,0.0,0.0,94,0.00,CLR,SCT,0.00,WeatherDisplay:10.37,2013-01-04 06:17:00,
2013-01-03 21:22:00,37.4,35.6,29.15,ENE,68,0.0,0.0,93,0.00,CLR,SCT,0.00,WeatherDisplay:10.37,2013-01-04 06:22:00,
2013-01-03 21:27:00,37.4,35.6,29.15,ENE,68,0.0,0.0,93,0.00,CLR,SCT,0.00,WeatherDisplay:10.37,2013-01-04 06:27:00,
2013-01-03 21:32:00,37.4,35.6,29.15,ENE,68,0.0,0.0,93,0.00,CLR,SCT,0.00,WeatherDisplay:10.37,2013-01-04 06:32:00,
2013-01-03 21:37:00,37.4,35.8,29.15,ENE,68,0.0,0.0,94,0.00,CLR,SCT,0.00,WeatherDisplay:10.37,2013-01-04 06:37:00,
2013-01-03 21:42:00,37.4,35.8,29.15,ENE,68,0.0,0.0,94,0.00,CLR,SCT,0.00,WeatherDisplay:10.37,2013-01-04 06:42:00,
2013-01-03 21:47:00,37.6,36.0,29.15,ENE,68,0.0,0.0,94,0.00,CLR,SCT,0.00,WeatherDisplay:10.37,2013-01-04 06:47:00,
2013-01-03 21:52:00,37.6,36.0,29.15,ENE,68,0.0,0.0,94,0.00,CLR,SCT,0.00,WeatherDisplay:10.37,2013-01-04 06:52:00,
2013-01-03 21:57:00,37.6,36.0,29.15,ENE,68,0.0,0.0,94,0.00,CLR,SCT,0.00,WeatherDisplay:10.37,2013-01-04 06:57:00,
2013-01-03 22:02:00,37.6,36.0,29.15,ENE,68,0.0,0.0,94,0.00,CLR,SCT,0.00,WeatherDisplay:10.37,2013-01-04 07:02:00,
2013-01-03 22:07:00,37.8,36.2,29.15,ENE,68,0.0,0.0,94,0.00,CLR,SCT,0.00,WeatherDisplay:10.37,2013-01-04 07:07:00,
2013-01-03 22:12:00,37.8,36.2,29.15,ENE,68,0.0,0.0,94,0.00,CLR,SCT,0.00,WeatherDisplay:10.37,2013-01-04 07:12:00,
2013-01-03 22:17:00,37.9,36.4,29.15,ENE,68,0.0,0.0,94,0.00,CLR,SCT,0.00,WeatherDisplay:10.37,2013-01-04 07:17:00,
2013-01-03 22:22:00,37.9,36.4,29.18,ENE,68,0.0,0.0,94,0.00,CLR,SCT,0.00,WeatherDisplay:10.37,2013-01-04 07:22:00,
2013-01-03 22:27:00,37.9,36.4,29.18,ENE,68,0.0,0.0,94,0.00,CLR,SCT,0.00,WeatherDisplay:10.37,2013-01-04 07:27:00,
2013-01-03 22:32:00,37.9,36.4,29.18,ENE,68,0.0,0.0,94,0.00,CLR,SCT,0.00,WeatherDisplay:10.37,2013-01-04 07:32:00,
2013-01-03 22:37:00,37.9,36.4,29.18,ENE,68,0.0,0.0,94,0.00,CLR,SCT,0.00,WeatherDisplay:10.37,2013-01-04 07:37:00,
2013-01-03 22:42:00,37.9,36.4,29.18,ENE,68,0.0,0.0,94,0.00,CLR,SCT,0.00,WeatherDisplay:10.37,2013-01-04 07:42:00,
2013-01-03 22:47:00,37.9,36.4,29.18,ENE,68,0.0,0.0,94,0.00,CLR,SCT,0.00,WeatherDisplay:10.37,2013-01-04 07:47:00,
2013-01-03 22:52:00,37.9,36.6,29.18,ENE,68,0.0,0.0,95,0.00,CLR,SCT,0.00,WeatherDisplay:10.37,2013-01-04 07:52:00,
2013-01-03 22:57:00,37.9,36.6,29.18,ENE,68,0.0,0.0,95,0.00,CLR,SCT,0.00,WeatherDisplay:10.37,2013-01-04 07:57:00,
2013-01-03 23:02:00,37.9,36.6,29.18,ENE,68,0.0,0.0,95,0.00,CLR,SCT,0.00,WeatherDisplay:10.37,2013-01-04 08:02:00,
2013-01-03 23:07:00,38.1,36.8,29.18,ENE,68,0.0,0.0,95,0.00,CLR,SCT,0.00,WeatherDisplay:10.37,2013-01-04 08:07:00,
2013-01-03 23:12:00,38.1,36.8,29.18,ENE,68,0.0,0.0,95,0.00,CLR,SCT,0.00,WeatherDisplay:10.37,2013-01-04 08:12:00,
2013-01-03 23:17:00,38.3,37.0,29.18,ENE,68,0.0,0.0,95,0.00,CLR,SCT,0.00,WeatherDisplay:10.37,2013-01-04 08:17:00,
2013-01-03 23:22:00,38.5,37.2,29.18,ENE,68,0.0,0.0,95,0.00,CLR,SCT,0.00,WeatherDisplay:10.37,2013-01-04 08:22:00,
2013-01-03 23:27:00,38.7,37.4,29.18,ENE,68,0.0,0.0,95,0.00,CLR,SCT,0.00,WeatherDisplay:10.37,2013-01-04 08:27:00,
2013-01-03 23:32:00,39.0,37.7,29.18,ENE,68,0.0,0.0,95,0.00,CLR,SCT,0.00,WeatherDisplay:10.37,2013-01-04 08:32:00,
2013-01-03 23:37:00,39.2,37.9,29.18,ENE,68,0.0,0.0,95,0.00,CLR,SCT,0.00,WeatherDisplay:10.37,2013-01-04 08:37:00,
2013-01-03 23:42:00,39.4,38.1,29.18,ENE,68,0.0,0.0,95,0.00,CLR,SCT,0.00,WeatherDisplay:10.37,2013-01-04 08:42:00,
2013-01-03 23:47:00,39.4,38.1,29.18,ENE,68,0.0,0.0,95,0.00,CLR,SCT,0.00,WeatherDisplay:10.37,2013-01-04 08:47:00,
2013-01-03 23:52:00,39.4,38.1,29.18,ENE,68,0.0,0.0,95,0.00,CLR,SCT,0.00,WeatherDisplay:10.37,2013-01-04 08:52:00,
2013-01-03 23:57:00,39.4,38.1,29.18,ENE,68,0.0,0.0,95,0.00,CLR,SCT,0.00,WeatherDisplay:10.37,2013-01-04 08:57:00,